DAL761 KJFK-KBOS
Flight info
| Callsign | DAL761 |
|---|---|
| Flight time | 0h 41m |
| Altitude | 21000 |
| Route | MERIT ROBUC3 |
| Aircraft | A339/H-VGDW/C |
Departure
| Time | 2026-05-08 00:26 |
|---|---|
| Airport | John F. Kennedy International Airport (KJFK) |
Arrival
| Time | 2026-05-08 01:07 |
|---|---|
| Airport | Boston Logan International Airport (KBOS) |
| Time | Latitude | Longitude | Altitude | Speed | Heading |
|---|---|---|---|---|---|
| 2026-05-08 00:21 | 40.63838 | -73.77924 | 28 ft | 0 kts | 173° |
| 2026-05-08 00:23 | 40.63813 | -73.77920 | 23 ft | 7 kts | 173° |
| 2026-05-08 00:23 | 40.63742 | -73.77909 | 26 ft | 12 kts | 173° |
| 2026-05-08 00:23 | 40.63656 | -73.77896 | 26 ft | 13 kts | 173° |
| 2026-05-08 00:24 | 40.63567 | -73.77848 | 28 ft | 15 kts | 146° |
| 2026-05-08 00:24 | 40.63483 | -73.77846 | 26 ft | 13 kts | 211° |
| 2026-05-08 00:24 | 40.63405 | -73.77911 | 28 ft | 14 kts | 212° |
| 2026-05-08 00:24 | 40.63317 | -73.77979 | 28 ft | 15 kts | 201° |
| 2026-05-08 00:25 | 40.63223 | -73.78023 | 27 ft | 14 kts | 215° |
| 2026-05-08 00:25 | 40.63225 | -73.78127 | 29 ft | 16 kts | 302° |
| 2026-05-08 00:25 | 40.63436 | -73.78586 | 30 ft | 107 kts | 300° |
| 2026-05-08 00:25 | 40.63931 | -73.79778 | 205 ft | 180 kts | 299° |
| 2026-05-08 00:26 | 40.64664 | -73.81246 | 895 ft | 199 kts | 308° |
| 2026-05-08 00:26 | 40.65493 | -73.82595 | 1261 ft | 193 kts | 308° |
| 2026-05-08 00:26 | 40.65870 | -73.84316 | 1759 ft | 204 kts | 270° |
| 2026-05-08 00:26 | 40.65300 | -73.86151 | 2291 ft | 235 kts | 231° |
| 2026-05-08 00:27 | 40.63980 | -73.87561 | 3031 ft | 253 kts | 216° |
| 2026-05-08 00:27 | 40.62325 | -73.88536 | 3428 ft | 273 kts | 195° |
| 2026-05-08 00:27 | 40.60422 | -73.88527 | 3236 ft | 272 kts | 166° |
| 2026-05-08 00:27 | 40.58646 | -73.87788 | 3260 ft | 268 kts | 163° |
| 2026-05-08 00:28 | 40.56812 | -73.87243 | 3249 ft | 272 kts | 170° |
| 2026-05-08 00:28 | 40.54990 | -73.86781 | 3191 ft | 270 kts | 162° |
| 2026-05-08 00:28 | 40.53421 | -73.85466 | 3151 ft | 270 kts | 130° |
| 2026-05-08 00:28 | 40.52584 | -73.83309 | 3417 ft | 266 kts | 99° |
| 2026-05-08 00:29 | 40.52687 | -73.80928 | 3945 ft | 258 kts | 70° |
| 2026-05-08 00:29 | 40.53448 | -73.78797 | 4378 ft | 263 kts | 60° |
| 2026-05-08 00:29 | 40.54339 | -73.76672 | 4811 ft | 266 kts | 59° |
| 2026-05-08 00:29 | 40.55264 | -73.74550 | 5241 ft | 269 kts | 58° |
| 2026-05-08 00:30 | 40.56231 | -73.72414 | 5612 ft | 277 kts | 57° |
| 2026-05-08 00:30 | 40.57238 | -73.70237 | 5760 ft | 274 kts | 57° |
| 2026-05-08 00:30 | 40.58223 | -73.68124 | 6054 ft | 276 kts | 57° |
| 2026-05-08 00:30 | 40.59243 | -73.65942 | 6655 ft | 278 kts | 56° |
| 2026-05-08 00:31 | 40.60247 | -73.63777 | 7438 ft | 283 kts | 54° |
| 2026-05-08 00:31 | 40.61626 | -73.61953 | 8185 ft | 282 kts | 27° |
| 2026-05-08 00:31 | 40.63462 | -73.61151 | 9012 ft | 278 kts | 4° |
| 2026-05-08 00:31 | 40.65383 | -73.60803 | 9873 ft | 280 kts | 1° |
| 2026-05-08 00:32 | 40.67360 | -73.60484 | 10393 ft | 295 kts | 0° |
| 2026-05-08 00:32 | 40.69468 | -73.60176 | 10758 ft | 314 kts | 360° |
| 2026-05-08 00:32 | 40.71702 | -73.59832 | 11135 ft | 334 kts | 3° |
| 2026-05-08 00:32 | 40.73995 | -73.58771 | 11455 ft | 363 kts | 20° |
| 2026-05-08 00:33 | 40.76278 | -73.57197 | 11900 ft | 378 kts | 23° |
| 2026-05-08 00:33 | 40.78620 | -73.55499 | 12386 ft | 390 kts | 24° |
| 2026-05-08 00:33 | 40.81029 | -73.53739 | 12890 ft | 401 kts | 24° |
| 2026-05-08 00:33 | 40.83350 | -73.51665 | 13279 ft | 420 kts | 37° |
| 2026-05-08 00:34 | 40.85217 | -73.48629 | 13724 ft | 432 kts | 56° |
| 2026-05-08 00:34 | 40.86687 | -73.45139 | 14300 ft | 438 kts | 60° |
| 2026-05-08 00:34 | 40.88097 | -73.41548 | 14846 ft | 444 kts | 62° |
| 2026-05-08 00:34 | 40.89513 | -73.37894 | 15211 ft | 446 kts | 62° |
| 2026-05-08 00:35 | 40.90914 | -73.34279 | 16174 ft | 439 kts | 62° |
| 2026-05-08 00:35 | 40.92305 | -73.30722 | 17203 ft | 432 kts | 62° |
| 2026-05-08 00:35 | 40.93689 | -73.27229 | 18213 ft | 426 kts | 62° |
| 2026-05-08 00:35 | 40.95062 | -73.23797 | 19138 ft | 418 kts | 62° |
| 2026-05-08 00:36 | 40.96403 | -73.20475 | 20075 ft | 412 kts | 61° |
| 2026-05-08 00:36 | 40.97777 | -73.17114 | 20600 ft | 420 kts | 60° |
| 2026-05-08 00:36 | 40.99208 | -73.13664 | 20814 ft | 436 kts | 60° |
| 2026-05-08 00:36 | 41.00714 | -73.10083 | 20906 ft | 455 kts | 60° |
| 2026-05-08 00:37 | 41.02282 | -73.06400 | 20948 ft | 461 kts | 59° |
| 2026-05-08 00:37 | 41.03878 | -73.02679 | 20982 ft | 473 kts | 59° |
| 2026-05-08 00:37 | 41.05545 | -72.98820 | 20982 ft | 492 kts | 59° |
| 2026-05-08 00:38 | 41.08980 | -72.90928 | 20966 ft | 522 kts | 59° |
| 2026-05-08 00:38 | 41.10783 | -72.86794 | 20973 ft | 526 kts | 59° |
| 2026-05-08 00:38 | 41.12615 | -72.82594 | 20991 ft | 526 kts | 59° |
| 2026-05-08 00:38 | 41.14446 | -72.78388 | 20987 ft | 527 kts | 59° |
| 2026-05-08 00:39 | 41.16283 | -72.74168 | 20986 ft | 528 kts | 59° |
| 2026-05-08 00:39 | 41.18120 | -72.69951 | 20927 ft | 528 kts | 59° |
| 2026-05-08 00:39 | 41.19952 | -72.65742 | 20911 ft | 526 kts | 59° |
| 2026-05-08 00:39 | 41.21783 | -72.61538 | 20882 ft | 526 kts | 59° |
| 2026-05-08 00:40 | 41.23611 | -72.57336 | 20871 ft | 525 kts | 59° |
| 2026-05-08 00:40 | 41.25431 | -72.53149 | 20975 ft | 524 kts | 59° |
| 2026-05-08 00:40 | 41.27264 | -72.48932 | 21059 ft | 529 kts | 59° |
| 2026-05-08 00:40 | 41.29084 | -72.44746 | 21052 ft | 530 kts | 59° |
| 2026-05-08 00:41 | 41.30922 | -72.40506 | 21056 ft | 528 kts | 59° |
| 2026-05-08 00:41 | 41.32756 | -72.36274 | 21052 ft | 528 kts | 59° |
| 2026-05-08 00:41 | 41.34586 | -72.32039 | 21053 ft | 529 kts | 60° |
| 2026-05-08 00:41 | 41.36420 | -72.27790 | 21048 ft | 527 kts | 60° |
| 2026-05-08 00:42 | 41.38203 | -72.23656 | 20975 ft | 503 kts | 60° |
| 2026-05-08 00:42 | 41.39906 | -72.19694 | 20879 ft | 483 kts | 60° |
| 2026-05-08 00:42 | 41.41546 | -72.15876 | 20655 ft | 469 kts | 60° |
| 2026-05-08 00:42 | 41.43163 | -72.12109 | 20160 ft | 466 kts | 60° |
| 2026-05-08 00:43 | 41.44726 | -72.08467 | 19560 ft | 449 kts | 60° |
| 2026-05-08 00:43 | 41.46247 | -72.04919 | 18892 ft | 436 kts | 60° |
| 2026-05-08 00:43 | 41.47745 | -72.01422 | 18144 ft | 434 kts | 60° |
| 2026-05-08 00:43 | 41.49239 | -71.97920 | 17205 ft | 434 kts | 60° |
| 2026-05-08 00:44 | 41.50714 | -71.94446 | 16288 ft | 426 kts | 60° |
| 2026-05-08 00:44 | 41.52151 | -71.91047 | 15403 ft | 415 kts | 59° |
| 2026-05-08 00:44 | 41.53556 | -71.87721 | 14683 ft | 411 kts | 59° |
| 2026-05-08 00:44 | 41.54963 | -71.84397 | 13928 ft | 410 kts | 59° |
| 2026-05-08 00:45 | 41.56338 | -71.81146 | 13175 ft | 406 kts | 58° |
| 2026-05-08 00:45 | 41.57711 | -71.77899 | 12519 ft | 396 kts | 58° |
| 2026-05-08 00:45 | 41.59048 | -71.74747 | 12213 ft | 385 kts | 58° |
| 2026-05-08 00:45 | 41.60341 | -71.71693 | 12103 ft | 370 kts | 58° |
| 2026-05-08 00:46 | 41.61583 | -71.68761 | 12068 ft | 357 kts | 58° |
| 2026-05-08 00:46 | 41.62800 | -71.65898 | 12050 ft | 353 kts | 58° |
| 2026-05-08 00:46 | 41.63998 | -71.63027 | 12045 ft | 355 kts | 59° |
| 2026-05-08 00:46 | 41.65195 | -71.60111 | 11806 ft | 363 kts | 59° |
| 2026-05-08 00:47 | 41.66440 | -71.57108 | 10909 ft | 371 kts | 59° |
| 2026-05-08 00:47 | 41.67685 | -71.54140 | 10670 ft | 359 kts | 59° |
| 2026-05-08 00:47 | 41.68860 | -71.51344 | 10851 ft | 332 kts | 59° |
| 2026-05-08 00:47 | 41.69942 | -71.48766 | 10949 ft | 314 kts | 59° |
| 2026-05-08 00:48 | 41.71009 | -71.46244 | 11002 ft | 311 kts | 58° |
| 2026-05-08 00:48 | 41.72080 | -71.43718 | 11013 ft | 313 kts | 59° |
| 2026-05-08 00:48 | 41.73159 | -71.41188 | 11015 ft | 313 kts | 57° |
| 2026-05-08 00:48 | 41.74266 | -71.38686 | 11016 ft | 312 kts | 56° |
| 2026-05-08 00:49 | 41.75376 | -71.36188 | 11016 ft | 312 kts | 57° |
| 2026-05-08 00:49 | 41.76468 | -71.33680 | 11020 ft | 312 kts | 57° |
| 2026-05-08 00:49 | 41.77550 | -71.31161 | 11020 ft | 312 kts | 57° |
| 2026-05-08 00:49 | 41.78629 | -71.28636 | 11020 ft | 313 kts | 57° |
| 2026-05-08 00:50 | 41.79707 | -71.26100 | 11021 ft | 313 kts | 57° |
| 2026-05-08 00:50 | 41.80787 | -71.23569 | 10665 ft | 315 kts | 57° |
| 2026-05-08 00:50 | 41.81934 | -71.20930 | 9864 ft | 337 kts | 57° |
| 2026-05-08 00:50 | 41.83084 | -71.18306 | 9534 ft | 319 kts | 57° |
| 2026-05-08 00:51 | 41.84189 | -71.15783 | 9241 ft | 309 kts | 57° |
| 2026-05-08 00:51 | 41.85252 | -71.13360 | 8992 ft | 295 kts | 56° |
| 2026-05-08 00:51 | 41.86280 | -71.11025 | 8778 ft | 287 kts | 56° |
| 2026-05-08 00:51 | 41.87297 | -71.08724 | 8539 ft | 286 kts | 56° |
| 2026-05-08 00:52 | 41.88314 | -71.06433 | 8306 ft | 286 kts | 56° |
| 2026-05-08 00:52 | 41.89329 | -71.04142 | 8077 ft | 284 kts | 56° |
| 2026-05-08 00:52 | 41.90334 | -71.01870 | 7843 ft | 282 kts | 56° |
| 2026-05-08 00:52 | 41.91317 | -70.99685 | 7605 ft | 280 kts | 55° |
| 2026-05-08 00:53 | 41.92354 | -70.97480 | 7379 ft | 278 kts | 54° |
| 2026-05-08 00:53 | 41.93396 | -70.95340 | 7177 ft | 276 kts | 53° |
| 2026-05-08 00:53 | 41.94453 | -70.93212 | 7087 ft | 272 kts | 52° |
| 2026-05-08 00:53 | 41.95519 | -70.91098 | 7050 ft | 275 kts | 52° |
| 2026-05-08 00:54 | 41.96601 | -70.88976 | 7014 ft | 275 kts | 52° |
| 2026-05-08 00:54 | 41.97687 | -70.86866 | 6991 ft | 274 kts | 53° |
| 2026-05-08 00:54 | 41.98413 | -70.85469 | 6811 ft | 276 kts | 53° |
| 2026-05-08 00:54 | 41.99514 | -70.83382 | 6559 ft | 271 kts | 51° |
| 2026-05-08 00:55 | 42.00672 | -70.81418 | 6324 ft | 266 kts | 48° |
| 2026-05-08 00:55 | 42.01876 | -70.79550 | 6139 ft | 263 kts | 46° |
| 2026-05-08 00:55 | 42.03114 | -70.77741 | 6059 ft | 263 kts | 45° |
| 2026-05-08 00:55 | 42.04803 | -70.75388 | 6025 ft | 265 kts | 43° |
| 2026-05-08 00:56 | 42.06102 | -70.73636 | 6017 ft | 264 kts | 43° |
| 2026-05-08 00:56 | 42.06984 | -70.72464 | 6012 ft | 264 kts | 42° |
| 2026-05-08 00:56 | 42.08292 | -70.70734 | 6011 ft | 265 kts | 42° |
| 2026-05-08 00:56 | 42.09603 | -70.68986 | 5999 ft | 265 kts | 43° |
| 2026-05-08 00:57 | 42.10887 | -70.67255 | 6002 ft | 265 kts | 43° |
| 2026-05-08 00:57 | 42.12179 | -70.65493 | 6005 ft | 265 kts | 43° |
| 2026-05-08 00:57 | 42.13471 | -70.63719 | 6009 ft | 265 kts | 43° |
| 2026-05-08 00:57 | 42.14934 | -70.62273 | 5968 ft | 261 kts | 20° |
| 2026-05-08 00:58 | 42.16697 | -70.61935 | 5965 ft | 256 kts | 353° |
| 2026-05-08 00:58 | 42.18412 | -70.62490 | 5297 ft | 260 kts | 339° |
| 2026-05-08 00:58 | 42.20142 | -70.63362 | 4628 ft | 253 kts | 336° |
| 2026-05-08 00:58 | 42.21699 | -70.64183 | 4316 ft | 228 kts | 335° |
| 2026-05-08 00:59 | 42.23109 | -70.64951 | 4089 ft | 212 kts | 335° |
| 2026-05-08 00:59 | 42.24467 | -70.65709 | 3857 ft | 211 kts | 335° |
| 2026-05-08 00:59 | 42.25803 | -70.66464 | 3620 ft | 210 kts | 334° |
| 2026-05-08 00:59 | 42.27146 | -70.67222 | 3399 ft | 209 kts | 334° |
| 2026-05-08 01:00 | 42.28488 | -70.67979 | 3211 ft | 209 kts | 335° |
| 2026-05-08 01:00 | 42.29823 | -70.68734 | 3113 ft | 203 kts | 334° |
| 2026-05-08 01:00 | 42.31087 | -70.69436 | 3039 ft | 190 kts | 334° |
| 2026-05-08 01:00 | 42.32269 | -70.70087 | 3012 ft | 178 kts | 335° |
| 2026-05-08 01:01 | 42.33400 | -70.70710 | 3002 ft | 175 kts | 334° |
| 2026-05-08 01:01 | 42.34535 | -70.71328 | 2998 ft | 176 kts | 334° |
| 2026-05-08 01:01 | 42.35668 | -70.71941 | 2991 ft | 174 kts | 335° |
| 2026-05-08 01:01 | 42.36788 | -70.72557 | 3008 ft | 174 kts | 333° |
| 2026-05-08 01:02 | 42.37689 | -70.73561 | 2983 ft | 172 kts | 299° |
| 2026-05-08 01:02 | 42.38180 | -70.75004 | 3010 ft | 161 kts | 293° |
| 2026-05-08 01:02 | 42.38577 | -70.76286 | 3011 ft | 139 kts | 289° |
| 2026-05-08 01:02 | 42.38680 | -70.77576 | 3017 ft | 141 kts | 272° |
| 2026-05-08 01:03 | 42.38671 | -70.78906 | 2936 ft | 144 kts | 271° |
| 2026-05-08 01:03 | 42.38627 | -70.80253 | 2654 ft | 141 kts | 270° |
| 2026-05-08 01:03 | 42.38558 | -70.81568 | 2348 ft | 138 kts | 268° |
| 2026-05-08 01:03 | 42.38467 | -70.82824 | 2159 ft | 129 kts | 267° |
| 2026-05-08 01:04 | 42.38520 | -70.83981 | 2097 ft | 122 kts | 282° |
| 2026-05-08 01:04 | 42.38422 | -70.85149 | 2054 ft | 131 kts | 255° |
| 2026-05-08 01:04 | 42.38174 | -70.86344 | 1954 ft | 131 kts | 264° |
| 2026-05-08 01:04 | 42.38032 | -70.87522 | 1880 ft | 131 kts | 263° |
| 2026-05-08 01:05 | 42.37809 | -70.88754 | 1570 ft | 133 kts | 258° |
| 2026-05-08 01:05 | 42.37538 | -70.89906 | 1349 ft | 131 kts | 256° |
| 2026-05-08 01:05 | 42.37283 | -70.91149 | 1096 ft | 138 kts | 261° |
| 2026-05-08 01:05 | 42.37102 | -70.92430 | 830 ft | 141 kts | 261° |
| 2026-05-08 01:06 | 42.36918 | -70.93707 | 690 ft | 138 kts | 259° |
| 2026-05-08 01:06 | 42.36694 | -70.94940 | 590 ft | 134 kts | 258° |
| 2026-05-08 01:06 | 42.36471 | -70.96198 | 426 ft | 140 kts | 259° |
| 2026-05-08 01:06 | 42.36238 | -70.97477 | 248 ft | 142 kts | 259° |
| 2026-05-08 01:07 | 42.36012 | -70.98784 | 81 ft | 143 kts | 259° |
| 2026-05-08 01:07 | 42.35795 | -71.00037 | 30 ft | 125 kts | 259° |
| 2026-05-08 01:07 | 42.35684 | -71.00693 | 28 ft | 50 kts | 256° |
| 2026-05-08 01:07 | 42.35632 | -71.01059 | 28 ft | 25 kts | 279° |
| 2026-05-08 01:08 | 42.35701 | -71.01231 | 28 ft | 18 kts | 303° |
| 2026-05-08 01:08 | 42.35734 | -71.01299 | 28 ft | 0 kts | 299° |
| 2026-05-08 01:09 | 42.35734 | -71.01300 | 28 ft | 1 kts | 299° |
| 2026-05-08 01:09 | 42.35753 | -71.01358 | 28 ft | 12 kts | 294° |
| 2026-05-08 01:09 | 42.35783 | -71.01464 | 28 ft | 5 kts | 288° |
| 2026-05-08 01:09 | 42.35785 | -71.01473 | 28 ft | 0 kts | 288° |
| 2026-05-08 01:10 | 42.35786 | -71.01473 | 28 ft | 0 kts | 288° |
| 2026-05-08 01:10 | 42.35790 | -71.01489 | 28 ft | 6 kts | 289° |
| 2026-05-08 01:10 | 42.35812 | -71.01576 | 28 ft | 13 kts | 287° |
| 2026-05-08 01:10 | 42.35832 | -71.01704 | 28 ft | 15 kts | 281° |
| 2026-05-08 01:11 | 42.35857 | -71.01841 | 28 ft | 16 kts | 288° |
| 2026-05-08 01:11 | 42.35909 | -71.01980 | 28 ft | 17 kts | 301° |
| 2026-05-08 01:11 | 42.35973 | -71.02124 | 28 ft | 18 kts | 300° |
| 2026-05-08 01:11 | 42.36043 | -71.02274 | 28 ft | 19 kts | 314° |
| 2026-05-08 01:12 | 42.36142 | -71.02319 | 28 ft | 7 kts | 302° |
| 2026-05-08 01:12 | 42.36143 | -71.02381 | 28 ft | 7 kts | 258° |
| 2026-05-08 01:12 | 42.36141 | -71.02421 | 28 ft | 2 kts | 280° |
| 2026-05-08 01:12 | 42.36149 | -71.02440 | 28 ft | 0 kts | 298° |